Airfield :
LOGIN :

Register | Disclaimer

   EN    FR    IT 

 










Legend :    VFR   Marginal VFR   IFR   Intensive IFR   Very Intensive IFR
Visi :
Ceiling :
>= 8 km
>= 3000ft
5 to 8 km
1000 to 3000 ft
1500m to 5 km
500 to 1000 ft
800 to 1500m
200 to 500 ft
< 800m
< 200 ft
Symbols :   Thunderstorms  Fog  Heavy snow  Heavy precipitations  Wind > 20 kt
SIGMETs :     Misc.  Thunderstorms  Icing  Turbulence  Mountain Waves  Volcanic Ashes






- Airport Elevation : 375 ft
- IATA code : MST


EHBK - Maastricht Aachen

CURRENT METAR :
  • 021325Z AUTO 04010KT 010V080 5000 BKN007 OVC008 03/01 Q1021 TEMPO 4000 -DZ BKN004

EXPIRED METARs :
  • 021255Z AUTO 05010KT 010V080 4400 BR BKN006 OVC007 03/02 Q1021 TEMPO 2500 -DZ BKN004
  • 021225Z AUTO 05010KT 020V080 3400 BR BKN004 OVC005 03/02 Q1021 TEMPO 2500 BKN005
  • 021155Z AUTO 04010KT 010V090 3200 BR BKN004 OVC005 03/02 Q1021 TEMPO 2000 DZ BKN004
  • 021125Z AUTO 03011KT 360V060 2200 BR OVC002 02/02 Q1022 NOSIG
  • 021055Z AUTO 04009KT 010V070 2500 BR BKN003 BKN004 OVC006 02/02 Q1022 NOSIG

TAF COR TAF EHBK
Valid from the 02 at 12:00 until the 03 at 18:00 UTC


021121Z 0212/0318 03010KT 2500 BR -DZ BKN003
TEMPO 0212/0220 1400 DZ BKN002
PROB30
TEMPO 0212/0220 4000 BKN009
BECMG 0220/0223 06010KT 8000 NSW BKN020
PROB30
TEMPO 0223/0310 6000 SCT008 BKN012



MET'MAP, your aeronautical weather chart ! - Copyright ORBIFLY December 2007 - Disclaimer

ORBIFLY MET'MAP TEAM :

Programming & Development : Alexandra Zaïnal
Original concept : Baudouin d'Aumeries
Technical & hardware support : Manuel Goepfert
Assistance : Marc-Olivier Méhu




SOURCES & CREDITS :

   NOAA